Time;durP1;ratioP1;P1;durP2;ratioP2;P2;SDS_P1;SDS_P2;PMS_P1;PMS_P2;Temp;Humidity;BMP_temperature;BMP_pressure;BME280_temperature;BME280_humidity;BME280_pressure;Samples;Min_cycle;Max_cycle;Signal;HPM_P1;HPM_P2
2023/02/11 00:01:07;;;;;;;;;;;;;;;-4.75;100.00;98612.53;5040888;28;20361;-70
2023/02/11 00:03:33;;;;;;;;;;;;;;;-4.96;100.00;98608.44;5063345;28;19917;-70
2023/02/11 00:06:02;;;;;;;;;;;;;;;-4.94;100.00;98611.69;5065294;28;19916;-69
2023/02/11 00:08:28;;;;;;;;;;;;;;;-4.85;100.00;98605.03;5059183;28;19924;-69
2023/02/11 00:10:54;;;;;;;;;;;;;;;-4.80;100.00;98607.88;5062857;28;19917;-70
2023/02/11 00:13:19;;;;;;;;;;;;;;;-4.68;100.00;98614.13;5056112;28;20270;-70
2023/02/11 00:15:44;;;;;;;;;;;;;;;-4.54;100.00;98613.97;5062080;28;19966;-69
2023/02/11 00:18:10;;;;;;;;;;;;;;;-4.59;100.00;98612.00;5058236;28;20268;-69
2023/02/11 00:20:37;;;;;;;;;;;;;;;-4.56;100.00;98600.81;5062412;28;20023;-73
2023/02/11 00:23:03;;;;;;;;;;;;;;;-4.64;100.00;98601.13;5041447;28;19939;-67
2023/02/11 00:25:28;;;;;;;;;;;;;;;-5.04;100.00;98601.47;5060919;28;19917;-74
2023/02/11 00:27:53;;;;;;;;;;;;;;;-5.34;100.00;98596.81;5063618;28;20365;-73
2023/02/11 00:30:18;;;;;;;;;;;;;;;-5.42;100.00;98605.06;5058401;28;19971;-74
2023/02/11 00:32:44;;;;;;;;;;;;;;;-5.41;100.00;98609.41;5063314;28;19917;-71
2023/02/11 00:35:09;;;;;;;;;;;;;;;-5.23;100.00;98605.97;5057453;28;19924;-71
2023/02/11 00:37:35;;;;;;;;;;;;;;;-5.07;100.00;98604.63;5061881;28;19916;-73
2023/02/11 00:40:01;;;;;;;;;;;;;;;-5.18;100.00;98608.81;5062271;28;20356;-72
2023/02/11 00:42:26;;;;;;;;;;;;;;;-5.42;100.00;98594.41;5058209;28;20007;-72
2023/02/11 00:44:51;;;;;;;;;;;;;;;-5.62;100.00;98602.53;5062238;28;20054;-72
2023/02/11 00:47:17;;;;;;;;;;;;;;;-5.73;100.00;98597.91;5057351;28;19916;-74
2023/02/11 00:49:42;;;;;;;;;;;;;;;-5.83;100.00;98601.84;5062581;28;19921;-72
2023/02/11 00:52:07;;;;;;;;;;;;;;;-5.86;100.00;98596.13;5051394;28;19926;-69
2023/02/11 00:54:33;;;;;;;;;;;;;;;-5.84;100.00;98594.06;5078063;28;19999;-72
2023/02/11 00:56:58;;;;;;;;;;;;;;;-5.84;100.00;98584.19;5060620;28;19916;-72
2023/02/11 00:59:23;;;;;;;;;;;;;;;-5.81;100.00;98583.78;5062921;28;19920;-72
2023/02/11 01:01:49;;;;;;;;;;;;;;;-5.69;100.00;98583.06;5070499;28;19917;-72
2023/02/11 01:04:14;;;;;;;;;;;;;;;-5.68;100.00;98574.88;5063445;28;19921;-72
2023/02/11 01:06:39;;;;;;;;;;;;;;;-5.84;100.00;98573.53;5064698;28;19921;-73
2023/02/11 01:09:04;;;;;;;;;;;;;;;-5.91;100.00;98577.25;5058428;28;19923;-70
2023/02/11 01:11:30;;;;;;;;;;;;;;;-5.75;100.00;98568.75;5078911;28;20284;-74
2023/02/11 01:13:55;;;;;;;;;;;;;;;-5.70;100.00;98566.25;5060976;28;19923;-73
2023/02/11 01:16:20;;;;;;;;;;;;;;;-5.63;100.00;98564.34;5057333;28;19924;-71
2023/02/11 01:18:46;;;;;;;;;;;;;;;-5.58;100.00;98566.38;5062749;28;19938;-73
2023/02/11 01:21:11;;;;;;;;;;;;;;;-5.55;100.00;98570.47;5056758;28;19927;-73
2023/02/11 01:23:36;;;;;;;;;;;;;;;-5.50;100.00;98565.31;5061597;28;20310;-74
2023/02/11 01:26:02;;;;;;;;;;;;;;;-5.39;100.00;98568.06;5060771;28;19916;-68
2023/02/11 01:28:28;;;;;;;;;;;;;;;-5.26;100.00;98561.00;5058983;28;20437;-71
2023/02/11 01:30:54;;;;;;;;;;;;;;;-5.31;100.00;98564.34;5047003;28;20023;-73
2023/02/11 01:33:19;;;;;;;;;;;;;;;-5.20;100.00;98568.16;5060435;28;19959;-74
2023/02/11 01:35:45;;;;;;;;;;;;;;;-5.09;100.00;98570.09;5047144;28;19924;-72
2023/02/11 01:38:21;;;;;;;;;;;;;;;-5.07;100.00;98567.22;5057041;28;19920;-72
2023/02/11 01:41:07;;;;;;;;;;;;;;;-5.07;100.00;98564.53;5062785;28;20415;-72
2023/02/11 01:43:34;;;;;;;;;;;;;;;-5.34;100.00;98567.44;5064468;28;19917;-72
2023/02/11 01:46:03;;;;;;;;;;;;;;;-5.65;100.00;98562.94;5067825;28;20292;-71
2023/02/11 01:48:35;;;;;;;;;;;;;;;-5.89;100.00;98557.31;5052028;28;20238;-72
2023/02/11 01:51:06;;;;;;;;;;;;;;;-5.90;100.00;98554.91;5072420;28;19972;-73
2023/02/11 01:59:05;;;;;;;;;;;;;;;-5.58;100.00;98547.69;5062035;28;19917;-69
2023/02/11 02:01:33;;;;;;;;;;;;;;;-5.55;100.00;98549.09;5067174;28;20027;-72
2023/02/11 02:04:00;;;;;;;;;;;;;;;-5.44;100.00;98556.41;5065122;28;20015;-70
2023/02/11 02:06:31;;;;;;;;;;;;;;;-5.40;100.00;98552.28;5055754;28;19924;-73
2023/02/11 02:09:02;;;;;;;;;;;;;;;-5.35;100.00;98549.75;5076767;28;19939;-71
2023/02/11 02:11:28;;;;;;;;;;;;;;;-5.39;100.00;98545.91;5060643;28;19917;-72
2023/02/11 02:13:53;;;;;;;;;;;;;;;-5.39;100.00;98548.56;5065390;28;19920;-70
2023/02/11 02:16:29;;;;;;;;;;;;;;;-5.36;100.00;98544.66;5060316;28;20281;-72
2023/02/11 02:19:13;;;;;;;;;;;;;;;-5.57;100.00;98533.31;5065220;28;19916;-73
2023/02/11 02:21:38;;;;;;;;;;;;;;;-5.61;100.00;98534.78;5079508;28;20426;-73
2023/02/11 02:24:15;;;;;;;;;;;;;;;-5.48;100.00;98539.19;5061892;28;19920;-68
2023/02/11 02:26:49;;;;;;;;;;;;;;;-5.52;100.00;98533.47;5065552;28;19931;-72
2023/02/11 02:29:15;;;;;;;;;;;;;;;-5.69;100.00;98529.69;5062268;28;19927;-72
2023/02/11 02:31:52;;;;;;;;;;;;;;;-5.57;100.00;98535.97;5087769;28;19917;-67
2023/02/11 02:34:22;;;;;;;;;;;;;;;-5.54;100.00;98532.88;5067870;28;19951;-73
2023/02/11 02:36:56;;;;;;;;;;;;;;;-5.51;100.00;98527.13;5065510;28;20007;-72
2023/02/11 02:39:23;;;;;;;;;;;;;;;-5.67;100.00;98520.44;5061702;28;19955;-73
2023/02/11 02:41:49;;;;;;;;;;;;;;;-5.79;100.00;98528.31;5064368;28;20281;-74
2023/02/11 02:44:15;;;;;;;;;;;;;;;-5.61;100.00;98542.78;5057954;28;20407;-73
2023/02/11 02:46:40;;;;;;;;;;;;;;;-5.51;100.00;98531.59;5064165;28;19920;-72
2023/02/11 02:49:06;;;;;;;;;;;;;;;-5.52;100.00;98541.47;5060333;28;19917;-72
2023/02/11 02:51:37;;;;;;;;;;;;;;;-5.52;100.00;98530.81;5063194;28;19917;-72
2023/02/11 02:54:22;;;;;;;;;;;;;;;-5.48;100.00;98531.19;5078324;28;19904;-68
2023/02/11 02:56:53;;;;;;;;;;;;;;;-5.56;100.00;98526.94;5074073;28;19944;-73
2023/02/11 02:59:38;;;;;;;;;;;;;;;-5.80;100.00;98517.84;5058872;28;19916;-74
2023/02/11 03:02:16;;;;;;;;;;;;;;;-6.00;100.00;98518.03;5061121;28;19920;-68
2023/02/11 03:04:57;;;;;;;;;;;;;;;-6.12;100.00;98512.56;5064289;28;20265;-73
2023/02/11 03:07:40;;;;;;;;;;;;;;;-6.29;100.00;98506.09;5059218;28;20367;-72
2023/02/11 03:10:09;;;;;;;;;;;;;;;-6.35;100.00;98492.59;5059079;28;19923;-72
2023/02/11 03:12:36;;;;;;;;;;;;;;;-6.41;100.00;98496.13;5046149;28;19938;-73
2023/02/11 03:15:04;;;;;;;;;;;;;;;-6.41;100.00;98500.59;5061960;28;19917;-68
2023/02/11 03:17:30;;;;;;;;;;;;;;;-6.35;100.00;98491.78;5063412;28;20293;-73
2023/02/11 03:19:57;;;;;;;;;;;;;;;-6.23;100.00;98486.56;5063955;28;20296;-73
2023/02/11 03:22:35;;;;;;;;;;;;;;;-5.96;100.00;98487.22;5040881;28;19924;-73
2023/02/11 03:25:01;;;;;;;;;;;;;;;-5.83;100.00;98486.28;5063804;28;19960;-72
2023/02/11 03:27:50;;;;;;;;;;;;;;;-5.73;100.00;98494.59;5041652;28;20356;-73
2023/02/11 03:30:19;;;;;;;;;;;;;;;-5.66;100.00;98497.22;5048218;28;19916;-74
2023/02/11 03:32:50;;;;;;;;;;;;;;;-5.67;100.00;98503.59;5062541;28;20285;-73
2023/02/11 03:35:22;;;;;;;;;;;;;;;-5.76;100.00;98503.06;5040254;28;19924;-72
2023/02/11 03:37:50;;;;;;;;;;;;;;;-5.77;100.00;98499.56;5064054;28;19916;-73
2023/02/11 03:40:18;;;;;;;;;;;;;;;-5.64;100.00;98500.50;5040288;28;19921;-73
2023/02/11 03:42:52;;;;;;;;;;;;;;;-5.59;100.00;98508.69;5063959;28;19916;-73
2023/02/11 03:45:20;;;;;;;;;;;;;;;-5.63;100.00;98488.81;5058876;28;20266;-74
2023/02/11 03:47:47;;;;;;;;;;;;;;;-5.67;100.00;98477.75;5063168;28;19920;-73
2023/02/11 03:50:14;;;;;;;;;;;;;;;-5.81;100.00;98476.22;5059370;28;19916;-71
2023/02/11 03:52:40;;;;;;;;;;;;;;;-6.04;100.00;98472.28;5061273;28;19920;-72
2023/02/11 03:55:10;;;;;;;;;;;;;;;-6.20;100.00;98473.63;5061356;28;20446;-72
2023/02/11 03:57:35;;;;;;;;;;;;;;;-6.42;100.00;98477.66;5047611;28;19955;-72
2023/02/11 04:00:00;;;;;;;;;;;;;;;-6.62;100.00;98475.91;5061847;28;19978;-70
2023/02/11 04:02:28;;;;;;;;;;;;;;;-6.61;100.00;98474.03;5058986;28;19916;-71
2023/02/11 04:04:53;;;;;;;;;;;;;;;-6.58;100.00;98478.97;5046241;28;19917;-73
2023/02/11 04:07:18;;;;;;;;;;;;;;;-6.36;100.00;98474.94;5052787;28;19917;-73
2023/02/11 04:09:44;;;;;;;;;;;;;;;-6.22;100.00;98483.69;5058095;28;20396;-73
2023/02/11 04:12:09;;;;;;;;;;;;;;;-5.90;100.00;98488.19;5061220;28;19923;-72
2023/02/11 04:14:35;;;;;;;;;;;;;;;-5.84;100.00;98488.13;5081896;28;19915;-72
2023/02/11 04:17:01;;;;;;;;;;;;;;;-5.79;100.00;98482.94;5069022;28;20487;-73
2023/02/11 04:19:28;;;;;;;;;;;;;;;-5.73;100.00;98481.25;5060262;28;19923;-72
2023/02/11 04:21:53;;;;;;;;;;;;;;;-5.59;100.00;98484.66;5062544;28;19927;-72
2023/02/11 04:24:19;;;;;;;;;;;;;;;-5.66;100.00;98483.88;5068991;28;19916;-72
2023/02/11 04:26:44;;;;;;;;;;;;;;;-5.56;100.00;98486.88;5076101;28;19916;-72
2023/02/11 04:29:09;;;;;;;;;;;;;;;-5.50;100.00;98490.53;5067961;28;19956;-73
2023/02/11 04:31:35;;;;;;;;;;;;;;;-5.47;100.00;98485.56;5072779;28;19983;-72
2023/02/11 04:34:00;;;;;;;;;;;;;;;-5.47;100.00;98479.44;5063120;28;19921;-72
2023/02/11 04:36:25;;;;;;;;;;;;;;;-5.48;100.00;98485.78;5057072;28;19916;-72
2023/02/11 04:38:50;;;;;;;;;;;;;;;-5.46;100.00;98483.72;5061938;28;19960;-70
2023/02/11 04:41:16;;;;;;;;;;;;;;;-5.41;100.00;98489.22;5057793;28;19927;-72
2023/02/11 04:43:41;;;;;;;;;;;;;;;-5.40;100.00;98490.88;5060392;28;19962;-72
2023/02/11 04:46:06;;;;;;;;;;;;;;;-5.38;100.00;98494.13;5057288;28;19939;-71
2023/02/11 04:48:33;;;;;;;;;;;;;;;-5.36;100.00;98491.25;5057611;28;20583;-72
2023/02/11 04:50:59;;;;;;;;;;;;;;;-5.32;100.00;98489.75;5062370;28;19931;-71
2023/02/11 04:53:24;;;;;;;;;;;;;;;-5.37;100.00;98493.06;5057103;28;20018;-72
2023/02/11 04:55:50;;;;;;;;;;;;;;;-5.47;100.00;98501.59;5072126;28;19924;-72
2023/02/11 04:58:16;;;;;;;;;;;;;;;-5.73;100.00;98501.81;5054611;28;19943;-73
2023/02/11 05:00:41;;;;;;;;;;;;;;;-5.88;100.00;98504.78;5061808;28;19924;-72
2023/02/11 05:03:07;;;;;;;;;;;;;;;-6.01;100.00;98511.88;5038904;28;19917;-73
2023/02/11 05:05:32;;;;;;;;;;;;;;;-6.09;100.00;98511.31;5062337;28;19943;-72
2023/02/11 05:07:57;;;;;;;;;;;;;;;-5.95;100.00;98513.66;5062645;28;19979;-72
2023/02/11 05:10:22;;;;;;;;;;;;;;;-5.69;100.00;98519.00;5057923;28;19916;-73
2023/02/11 05:12:48;;;;;;;;;;;;;;;-5.61;100.00;98521.44;5045495;28;20460;-73
2023/02/11 05:15:13;;;;;;;;;;;;;;;-5.60;100.00;98529.22;5037132;28;19920;-71
2023/02/11 05:17:39;;;;;;;;;;;;;;;-5.59;100.00;98528.19;5022484;28;19944;-72
2023/02/11 05:20:04;;;;;;;;;;;;;;;-5.52;100.00;98521.97;5018635;28;20019;-69
2023/02/11 05:22:30;;;;;;;;;;;;;;;-5.60;100.00;98528.38;5052164;28;20365;-71
2023/02/11 05:24:55;;;;;;;;;;;;;;;-5.73;100.00;98528.50;5043152;28;19916;-73
2023/02/11 05:27:20;;;;;;;;;;;;;;;-5.91;100.00;98524.72;5056404;28;19931;-71
2023/02/11 05:29:45;;;;;;;;;;;;;;;-6.11;100.00;98519.53;5043772;28;19924;-72
2023/02/11 05:32:11;;;;;;;;;;;;;;;-6.05;100.00;98521.34;5057202;28;19951;-72
2023/02/11 05:34:36;;;;;;;;;;;;;;;-5.96;100.00;98513.88;5060144;28;19923;-72
2023/02/11 05:37:01;;;;;;;;;;;;;;;-6.08;100.00;98515.63;5043106;28;20288;-73
2023/02/11 05:39:27;;;;;;;;;;;;;;;-6.25;100.00;98521.44;5058570;28;19924;-70
2023/02/11 05:41:52;;;;;;;;;;;;;;;-6.33;100.00;98520.91;5058687;28;19966;-70
2023/02/11 05:44:17;;;;;;;;;;;;;;;-6.28;100.00;98513.06;5060114;28;19924;-70
2023/02/11 05:46:43;;;;;;;;;;;;;;;-6.03;100.00;98516.63;5063735;28;19917;-70
2023/02/11 05:49:08;;;;;;;;;;;;;;;-5.80;100.00;98532.03;5057303;28;19926;-70
2023/02/11 05:51:33;;;;;;;;;;;;;;;-5.61;100.00;98532.09;5068832;28;19922;-70
2023/02/11 05:53:59;;;;;;;;;;;;;;;-5.54;100.00;98540.88;5073099;28;19917;-70
2023/02/11 05:56:24;;;;;;;;;;;;;;;-5.53;100.00;98544.38;5062011;28;19921;-69
2023/02/11 05:58:49;;;;;;;;;;;;;;;-5.41;100.00;98546.09;5061962;28;20284;-69
2023/02/11 06:01:14;;;;;;;;;;;;;;;-5.33;100.00;98530.84;5057196;28;19924;-68
2023/02/11 06:03:40;;;;;;;;;;;;;;;-5.28;100.00;98537.16;5062149;28;19921;-69
2023/02/11 06:06:08;;;;;;;;;;;;;;;-5.40;100.00;98529.06;5056287;28;19987;-68
2023/02/11 06:08:34;;;;;;;;;;;;;;;-5.42;100.00;98535.63;5045000;28;19940;-69
2023/02/11 06:10:59;;;;;;;;;;;;;;;-5.44;100.00;98535.88;5064097;28;20506;-69
2023/02/11 06:13:27;;;;;;;;;;;;;;;-5.40;100.00;98536.25;5039812;28;28410;-69
2023/02/11 06:15:56;;;;;;;;;;;;;;;-5.79;100.00;98528.31;5064716;28;19943;-67
2023/02/11 06:18:21;;;;;;;;;;;;;;;-6.05;100.00;98524.03;5077954;28;19943;-71
2023/02/11 06:20:46;;;;;;;;;;;;;;;-6.22;100.00;98518.34;5083158;28;19920;-68
2023/02/11 06:23:12;;;;;;;;;;;;;;;-6.26;100.00;98530.50;5057156;28;19921;-69
2023/02/11 06:25:37;;;;;;;;;;;;;;;-6.39;100.00;98519.88;5060784;28;19932;-70
2023/02/11 06:28:02;;;;;;;;;;;;;;;-6.41;100.00;98521.94;5059718;28;19967;-67
2023/02/11 06:30:28;;;;;;;;;;;;;;;-6.42;100.00;98513.13;5078314;28;19943;-70
2023/02/11 06:32:53;;;;;;;;;;;;;;;-6.37;100.00;98509.84;5065964;28;19974;-70
2023/02/11 06:35:19;;;;;;;;;;;;;;;-6.38;100.00;98516.19;5059735;28;19988;-68
2023/02/11 06:37:44;;;;;;;;;;;;;;;-6.42;100.00;98507.78;5063010;28;20464;-68
2023/02/11 06:40:10;;;;;;;;;;;;;;;-6.41;100.00;98509.44;5059666;28;19928;-69
2023/02/11 06:42:37;;;;;;;;;;;;;;;-6.37;100.00;98505.31;5066190;28;19947;-68
2023/02/11 06:45:04;;;;;;;;;;;;;;;-6.22;100.00;98490.88;5062954;28;19923;-65
2023/02/11 06:47:30;;;;;;;;;;;;;;;-5.93;100.00;98483.28;5062454;28;19924;-69
2023/02/11 06:49:55;;;;;;;;;;;;;;;-5.84;100.00;98468.63;5046071;28;20392;-69
2023/02/11 06:52:21;;;;;;;;;;;;;;;-5.85;100.00;98457.16;5040459;28;20497;-70
2023/02/11 06:54:46;;;;;;;;;;;;;;;-5.74;100.00;98455.63;5013223;28;19980;-69
2023/02/11 06:57:11;;;;;;;;;;;;;;;-5.84;100.00;98468.63;5063924;28;19917;-68
2023/02/11 06:59:36;;;;;;;;;;;;;;;-5.78;100.00;98470.41;5071329;28;19935;-69
2023/02/11 07:02:02;;;;;;;;;;;;;;;-5.73;100.00;98467.09;5089423;28;19917;-66
2023/02/11 07:04:27;;;;;;;;;;;;;;;-5.72;100.00;98464.22;5046277;28;19916;-69
2023/02/11 07:06:52;;;;;;;;;;;;;;;-6.27;100.00;98456.03;5080017;28;19968;-69
2023/02/11 07:09:17;;;;;;;;;;;;;;;-6.54;100.00;98456.19;5028387;28;19917;-68
2023/02/11 07:11:43;;;;;;;;;;;;;;;-6.51;100.00;98471.75;5074843;28;20423;-69
2023/02/11 07:14:09;;;;;;;;;;;;;;;-6.44;100.00;98466.41;5079738;28;19923;-68
2023/02/11 07:16:34;;;;;;;;;;;;;;;-6.26;100.00;98471.81;5084183;28;20253;-69
2023/02/11 07:18:59;;;;;;;;;;;;;;;-5.86;100.00;98487.53;5084523;28;19922;-68
2023/02/11 07:21:25;;;;;;;;;;;;;;;-5.69;100.00;98506.50;5058077;28;19927;-69
2023/02/11 07:23:50;;;;;;;;;;;;;;;-5.91;100.00;98519.38;5064272;28;19981;-69
2023/02/11 07:26:21;;;;;;;;;;;;;;;-5.52;100.00;98522.78;5059809;28;20613;-70
2023/02/11 07:28:46;;;;;;;;;;;;;;;-5.20;100.00;98517.38;5065280;28;19931;-68
2023/02/11 07:31:13;;;;;;;;;;;;;;;-4.94;100.00;98512.81;5059852;28;19920;-69
2023/02/11 07:33:38;;;;;;;;;;;;;;;-4.65;100.00;98503.22;5062674;28;19978;-68
2023/02/11 07:36:04;;;;;;;;;;;;;;;-4.27;100.00;98500.28;5060145;28;19925;-64
2023/02/11 07:38:30;;;;;;;;;;;;;;;-3.88;100.00;98494.59;5063662;28;19950;-69
2023/02/11 07:40:58;;;;;;;;;;;;;;;-3.46;100.00;98503.41;5064870;28;19921;-68
2023/02/11 07:43:23;;;;;;;;;;;;;;;-3.05;100.00;98492.81;5058864;28;19917;-69
2023/02/11 07:45:49;;;;;;;;;;;;;;;-2.98;100.00;98498.88;5078429;28;20289;-68
2023/02/11 07:48:14;;;;;;;;;;;;;;;-2.93;100.00;98501.66;5033848;28;19923;-68
2023/02/11 07:50:39;;;;;;;;;;;;;;;-2.95;100.00;98509.13;5043173;28;19923;-67
2023/02/11 07:53:04;;;;;;;;;;;;;;;-3.14;100.00;98510.28;5038162;28;20402;-66
2023/02/11 07:55:30;;;;;;;;;;;;;;;-3.39;100.00;98505.97;5043966;28;20010;-68
2023/02/11 07:57:55;;;;;;;;;;;;;;;-3.69;100.00;98511.38;5046036;28;19917;-68
2023/02/11 08:00:20;;;;;;;;;;;;;;;-3.69;100.00;98514.06;5039492;28;19931;-68
2023/02/11 08:02:46;;;;;;;;;;;;;;;-3.48;100.00;98520.75;5063540;28;19983;-68
2023/02/11 08:05:11;;;;;;;;;;;;;;;-3.09;100.00;98535.34;5057786;28;19916;-69
2023/02/11 08:07:37;;;;;;;;;;;;;;;-2.72;100.00;98534.28;5062808;28;20357;-67
2023/02/11 08:10:02;;;;;;;;;;;;;;;-2.36;100.00;98525.13;5063630;28;19916;-67
2023/02/11 08:12:27;;;;;;;;;;;;;;;-2.50;100.00;98511.16;5081930;28;20014;-69
2023/02/11 08:14:53;;;;;;;;;;;;;;;-2.56;100.00;98519.31;5084334;28;20030;-69
2023/02/11 08:17:18;;;;;;;;;;;;;;;-2.25;100.00;98526.13;5078870;28;19977;-68
2023/02/11 08:19:43;;;;;;;;;;;;;;;-1.90;100.00;98524.38;5083083;28;19930;-68
2023/02/11 08:22:09;;;;;;;;;;;;;;;-1.12;100.00;98533.44;5077796;28;20014;-70
2023/02/11 08:24:34;;;;;;;;;;;;;;;-0.38;100.00;98540.38;5083285;28;19920;-69
2023/02/11 08:26:59;;;;;;;;;;;;;;;0.21;100.00;98525.44;5076066;28;19917;-70
2023/02/11 08:29:24;;;;;;;;;;;;;;;-0.26;100.00;98527.63;5059405;28;20262;-70
2023/02/11 08:31:50;;;;;;;;;;;;;;;-0.04;100.00;98527.63;5078354;28;19920;-70
2023/02/11 08:34:17;;;;;;;;;;;;;;;0.07;100.00;98525.81;5055536;28;20364;-70
2023/02/11 08:36:43;;;;;;;;;;;;;;;0.28;100.00;98526.06;5041311;28;20427;-69
2023/02/11 08:39:13;;;;;;;;;;;;;;;0.55;100.00;98523.31;5057109;28;19916;-70
2023/02/11 08:41:38;;;;;;;;;;;;;;;0.75;100.00;98520.78;5062049;28;20035;-70
2023/02/11 08:44:04;;;;;;;;;;;;;;;0.93;100.00;98529.56;5059029;28;20015;-68
2023/02/11 08:46:29;;;;;;;;;;;;;;;0.93;100.00;98527.66;5060193;28;19917;-70
2023/02/11 08:48:54;;;;;;;;;;;;;;;1.12;100.00;98524.56;5042477;28;19920;-70
2023/02/11 08:51:23;;;;;;;;;;;;;;;1.26;100.00;98523.03;5056801;28;19924;-69
2023/02/11 08:53:49;;;;;;;;;;;;;;;1.09;100.00;98522.38;5062443;28;19921;-71
2023/02/11 08:56:16;;;;;;;;;;;;;;;0.81;100.00;98520.84;5047379;28;20369;-70
2023/02/11 08:58:41;;;;;;;;;;;;;;;0.76;100.00;98516.22;5059546;28;19931;-70
2023/02/11 09:01:15;;;;;;;;;;;;;;;0.45;100.00;98525.94;5056059;28;20377;-68
2023/02/11 09:03:41;;;;;;;;;;;;;;;-0.06;100.00;98528.94;5061602;28;19924;-69
2023/02/11 09:06:07;;;;;;;;;;;;;;;-0.03;100.00;98531.94;5056298;28;20363;-68
2023/02/11 09:08:33;;;;;;;;;;;;;;;0.26;100.00;98517.41;5067560;28;20401;-69
2023/02/11 09:10:59;;;;;;;;;;;;;;;0.53;100.00;98512.00;5079835;28;19920;-70
2023/02/11 09:13:24;;;;;;;;;;;;;;;0.52;100.00;98502.25;5065869;28;19923;-69
2023/02/11 09:15:49;;;;;;;;;;;;;;;1.86;100.00;98491.16;5071563;28;19998;-70
2023/02/11 09:18:14;;;;;;;;;;;;;;;3.46;97.00;98502.78;5067251;28;19973;-69
2023/02/11 09:20:40;;;;;;;;;;;;;;;3.89;85.82;98505.88;5054821;28;19935;-70
2023/02/11 09:23:05;;;;;;;;;;;;;;;4.29;83.06;98503.22;5060581;28;19923;-70
2023/02/11 09:25:30;;;;;;;;;;;;;;;4.42;81.38;98483.56;5061442;28;20276;-70
2023/02/11 09:27:56;;;;;;;;;;;;;;;4.06;82.72;98483.81;5044331;28;19917;-70
2023/02/11 09:30:21;;;;;;;;;;;;;;;3.94;83.04;98476.03;5072530;28;19924;-70
2023/02/11 09:32:46;;;;;;;;;;;;;;;3.46;84.98;98486.53;5067938;28;19916;-68
2023/02/11 09:35:12;;;;;;;;;;;;;;;2.99;86.53;98487.72;5075639;28;19921;-68
2023/02/11 09:37:37;;;;;;;;;;;;;;;3.17;89.34;98491.75;5049492;28;19920;-68
2023/02/11 09:40:02;;;;;;;;;;;;;;;3.12;89.51;98499.91;5061473;28;20007;-68
2023/02/11 09:42:34;;;;;;;;;;;;;;;2.92;89.41;98504.25;5064775;28;20042;-71
2023/02/11 09:45:02;;;;;;;;;;;;;;;2.68;89.16;98496.69;5045050;28;19917;-72
2023/02/11 09:47:30;;;;;;;;;;;;;;;2.66;90.18;98501.53;5057256;28;19948;-70
2023/02/11 09:49:59;;;;;;;;;;;;;;;2.45;91.92;98499.94;5062745;28;19917;-70
2023/02/11 09:52:44;;;;;;;;;;;;;;;2.28;93.36;98502.88;5056031;28;19962;-72
2023/02/11 09:55:19;;;;;;;;;;;;;;;2.53;94.08;98525.63;5044133;28;19943;-72
2023/02/11 09:57:45;;;;;;;;;;;;;;;2.71;93.90;98521.56;5051693;28;20280;-72
2023/02/11 10:00:22;;;;;;;;;;;;;;;2.83;91.61;98514.81;5053543;28;20018;-71
2023/02/11 10:03:14;;;;;;;;;;;;;;;2.90;91.31;98511.00;5061540;28;20351;-72
2023/02/11 10:05:45;;;;;;;;;;;;;;;2.82;92.19;98510.47;5033653;28;20452;-72
2023/02/11 10:08:29;;;;;;;;;;;;;;;2.94;91.51;98510.19;5058837;28;19967;-72
2023/02/11 10:10:59;;;;;;;;;;;;;;;3.09;92.41;98517.47;5064297;28;20385;-72
2023/02/11 10:13:45;;;;;;;;;;;;;;;2.66;92.79;98508.84;5060359;28;20056;-72
2023/02/11 10:16:14;;;;;;;;;;;;;;;2.85;93.44;98511.84;5060200;28;19927;-72
2023/02/11 10:18:40;;;;;;;;;;;;;;;2.96;91.89;98510.72;5064370;28;19917;-71
2023/02/11 10:21:05;;;;;;;;;;;;;;;2.96;92.33;98509.94;5058939;28;20393;-70
2023/02/11 10:23:33;;;;;;;;;;;;;;;2.80;92.37;98506.41;5067062;28;19970;-71
2023/02/11 10:25:59;;;;;;;;;;;;;;;2.79;92.53;98512.91;5064346;28;19924;-71
2023/02/11 10:28:27;;;;;;;;;;;;;;;3.25;92.12;98510.16;5060006;28;19916;-72
2023/02/11 10:31:00;;;;;;;;;;;;;;;4.16;88.04;98521.72;5066286;28;20289;-72
2023/02/11 10:33:40;;;;;;;;;;;;;;;4.81;82.64;98512.59;5041102;28;19932;-72
2023/02/11 10:36:06;;;;;;;;;;;;;;;5.30;78.70;98497.19;5049077;28;19920;-69
2023/02/11 10:38:32;;;;;;;;;;;;;;;5.08;78.81;98505.84;5062784;28;20318;-72
2023/02/11 10:40:58;;;;;;;;;;;;;;;5.72;77.47;98493.72;5061147;28;19921;-72
2023/02/11 10:43:25;;;;;;;;;;;;;;;6.93;72.31;98487.09;5040615;28;20643;-72
2023/02/11 10:45:51;;;;;;;;;;;;;;;7.73;66.54;98490.53;5028871;28;19921;-72
2023/02/11 10:48:35;;;;;;;;;;;;;;;6.70;69.47;98486.94;5059063;28;20011;-71
2023/02/11 10:51:09;;;;;;;;;;;;;;;4.42;81.00;98475.44;5064094;28;19921;-72
2023/02/11 10:53:35;;;;;;;;;;;;;;;3.48;86.37;98481.66;5046812;28;20262;-72
2023/02/11 10:56:02;;;;;;;;;;;;;;;3.38;91.98;98482.47;5080377;28;20015;-72
2023/02/11 10:58:48;;;;;;;;;;;;;;;5.03;85.11;98482.25;5052568;28;20023;-71
2023/02/11 11:01:13;;;;;;;;;;;;;;;6.72;69.96;98475.72;5049669;28;19928;-70
2023/02/11 11:03:45;;;;;;;;;;;;;;;8.49;65.55;98477.13;5046088;28;19923;-69
2023/02/11 11:06:10;;;;;;;;;;;;;;;9.29;59.72;98471.84;5057498;28;20363;-69
2023/02/11 11:08:38;;;;;;;;;;;;;;;8.67;58.94;98469.88;5063653;28;19917;-70
2023/02/11 11:11:08;;;;;;;;;;;;;;;8.09;62.21;98473.41;5060950;28;19943;-69
2023/02/11 11:13:34;;;;;;;;;;;;;;;8.12;62.45;98465.41;5046609;28;19925;-69
2023/02/11 11:16:12;;;;;;;;;;;;;;;7.68;64.61;98463.34;5060893;28;19916;-70
2023/02/11 11:18:38;;;;;;;;;;;;;;;6.79;68.23;98470.69;5062460;28;20019;-70
2023/02/11 11:21:11;;;;;;;;;;;;;;;6.37;70.54;98459.66;5061355;28;20022;-67
2023/02/11 11:23:37;;;;;;;;;;;;;;;6.54;71.60;98452.91;5044106;28;19921;-71
2023/02/11 11:26:08;;;;;;;;;;;;;;;6.78;70.04;98461.72;5041406;28;19924;-70
2023/02/11 11:28:42;;;;;;;;;;;;;;;7.21;69.37;98466.97;5042718;28;19925;-70
2023/02/11 11:31:14;;;;;;;;;;;;;;;7.80;66.12;98456.25;5038642;28;19924;-68
2023/02/11 11:33:41;;;;;;;;;;;;;;;7.76;63.71;98451.69;5043859;28;19917;-70
2023/02/11 11:36:08;;;;;;;;;;;;;;;7.56;64.57;98453.75;5036947;28;19917;-67
2023/02/11 11:38:35;;;;;;;;;;;;;;;7.63;63.92;98453.34;5046242;28;19917;-70
2023/02/11 11:41:24;;;;;;;;;;;;;;;7.48;63.78;98446.28;5045299;28;20248;-70
2023/02/11 11:43:53;;;;;;;;;;;;;;;8.35;59.75;98444.38;5060170;28;19916;-70
2023/02/11 11:46:22;;;;;;;;;;;;;;;8.61;59.43;98446.53;5059723;28;19924;-70
2023/02/11 11:48:48;;;;;;;;;;;;;;;8.38;58.60;98448.44;5063822;28;19916;-70
2023/02/11 11:51:13;;;;;;;;;;;;;;;9.15;57.21;98441.88;5057447;28;20343;-69
2023/02/11 11:53:44;;;;;;;;;;;;;;;9.67;53.44;98443.16;5063541;28;19932;-70
2023/02/11 11:56:15;;;;;;;;;;;;;;;9.71;51.57;98441.44;5057808;28;19952;-70
2023/02/11 11:58:40;;;;;;;;;;;;;;;9.26;50.85;98442.41;5064458;28;20016;-70
2023/02/11 12:01:22;;;;;;;;;;;;;;;9.68;51.37;98437.38;5057885;28;20007;-69
2023/02/11 12:03:50;;;;;;;;;;;;;;;9.23;52.84;98436.75;5062859;28;19916;-70
2023/02/11 12:06:22;;;;;;;;;;;;;;;10.22;49.62;98441.81;5058487;28;20300;-70
2023/02/11 12:08:53;;;;;;;;;;;;;;;7.28;57.70;98439.31;5063072;28;20011;-69
2023/02/11 12:11:24;;;;;;;;;;;;;;;6.97;58.61;98439.06;5056634;28;19966;-69
2023/02/11 12:14:05;;;;;;;;;;;;;;;7.61;58.07;98425.56;5063128;28;19916;-69
2023/02/11 12:16:33;;;;;;;;;;;;;;;8.87;56.75;98424.84;5053869;28;19917;-70
2023/02/11 12:18:59;;;;;;;;;;;;;;;9.35;53.62;98424.09;5071538;28;20003;-70
2023/02/11 12:21:30;;;;;;;;;;;;;;;10.29;50.54;98417.50;5060082;28;20000;-70
2023/02/11 12:24:28;;;;;;;;;;;;;;;11.16;48.11;98422.03;5068396;28;19916;-70
2023/02/11 12:26:59;;;;;;;;;;;;;;;12.68;45.08;98424.78;5012931;28;20028;-70
2023/02/11 12:29:30;;;;;;;;;;;;;;;12.90;44.03;98420.03;5040276;28;19927;-70
2023/02/11 12:31:59;;;;;;;;;;;;;;;12.09;44.49;98420.25;5061056;28;20334;-71
2023/02/11 12:34:27;;;;;;;;;;;;;;;11.59;47.07;98407.31;5070411;28;20759;-70
2023/02/11 12:37:12;;;;;;;;;;;;;;;11.55;47.45;98407.16;5055303;28;19944;-70
2023/02/11 12:39:46;;;;;;;;;;;;;;;12.12;45.08;98414.09;5056214;28;19955;-70
2023/02/11 12:45:37;;;;;;;;;;;;;;;13.76;41.77;98407.16;5034890;28;20361;-70
2023/02/11 12:48:06;;;;;;;;;;;;;;;12.98;43.72;98411.69;5041477;28;19920;-70
2023/02/11 12:50:34;;;;;;;;;;;;;;;13.01;43.96;98401.94;5061446;28;19923;-71
2023/02/11 12:53:05;;;;;;;;;;;;;;;11.80;46.26;98401.88;5045183;28;20300;-69
2023/02/11 12:55:36;;;;;;;;;;;;;;;10.82;48.85;98401.81;5042168;28;20211;-70